Time;durP1;ratioP1;P1;durP2;ratioP2;P2;SDS_P1;SDS_P2;PMS_P1;PMS_P2;Temp;Humidity;BMP_temperature;BMP_pressure;BME280_temperature;BME280_humidity;BME280_pressure;Samples;Min_cycle;Max_cycle;Signal;HPM_P1;HPM_P2
2022/09/30 00:01:14;;;;;;;8.82;4.35;;;;;;;7.95;nan;92925.34;4933107;29;20052;-64
2022/09/30 00:03:40;;;;;;;7.25;3.40;;;;;;;8.23;nan;92931.38;4932101;29;20051;-65
2022/09/30 00:06:07;;;;;;;61.27;34.90;;;;;;;8.29;nan;92928.88;4932420;29;20043;-64
2022/09/30 00:08:36;;;;;;;216.63;113.47;;;;;;;8.42;nan;92940.72;4931457;29;20056;-65
2022/09/30 00:11:17;;;;;;;28.90;15.45;;;;;;;8.50;nan;92946.81;4932678;29;20055;-64
2022/09/30 00:13:47;;;;;;;11.90;6.18;;;;;;;8.53;nan;92944.00;4931992;29;20050;-65
2022/09/30 00:16:15;;;;;;;7.63;4.30;;;;;;;8.37;nan;92955.66;4932463;29;20050;-64
2022/09/30 00:18:43;;;;;;;5.80;3.17;;;;;;;8.50;nan;92944.84;4932134;29;20058;-64
2022/09/30 00:21:11;;;;;;;5.22;3.30;;;;;;;8.46;nan;92946.88;4928937;29;20056;-64
2022/09/30 00:23:39;;;;;;;5.90;3.20;;;;;;;8.51;nan;92943.66;4931986;29;20054;-64
2022/09/30 00:26:11;;;;;;;4.78;2.40;;;;;;;8.54;nan;92942.03;4932326;29;20048;-64
2022/09/30 00:28:39;;;;;;;5.18;2.63;;;;;;;8.48;nan;92943.72;4931760;29;20052;-64
2022/09/30 00:31:09;;;;;;;4.00;2.30;;;;;;;8.37;nan;92935.72;4932234;29;20465;-64
2022/09/30 00:33:36;;;;;;;5.80;2.65;;;;;;;8.40;nan;92943.09;4932065;29;20070;-64
2022/09/30 00:36:04;;;;;;;3.53;2.00;;;;;;;8.30;nan;92944.88;4942784;28;20039;-64
2022/09/30 00:38:31;;;;;;;3.50;1.75;;;;;;;8.20;nan;92945.88;4932917;29;20043;-64
2022/09/30 00:41:00;;;;;;;3.03;1.83;;;;;;;8.16;nan;92953.38;4932378;29;20477;-64
2022/09/30 00:43:43;;;;;;;4.97;2.00;;;;;;;8.12;nan;92950.72;4932287;29;20036;-64
2022/09/30 00:46:25;;;;;;;4.15;2.28;;;;;;;8.01;nan;92952.94;4931708;29;21600;-65
2022/09/30 00:48:55;;;;;;;5.53;3.03;;;;;;;7.89;nan;92957.06;4915665;29;20046;-65
2022/09/30 00:51:52;;;;;;;4.75;2.65;;;;;;;7.60;nan;92968.53;4931996;29;20457;-64
2022/09/30 00:54:23;;;;;;;4.85;2.92;;;;;;;7.74;nan;92959.31;4918622;29;20678;-64
2022/09/30 00:56:59;;;;;;;5.07;2.83;;;;;;;7.74;nan;92959.31;4931717;29;20047;-64
2022/09/30 00:59:33;;;;;;;5.07;2.50;;;;;;;7.64;nan;92959.53;4932395;29;20152;-63
2022/09/30 01:02:01;;;;;;;5.07;2.80;;;;;;;7.68;nan;92971.16;4931294;29;20373;-65
2022/09/30 01:04:31;;;;;;;4.97;2.90;;;;;;;7.67;nan;92975.84;4932108;29;20062;-64
2022/09/30 01:07:00;;;;;;;4.82;2.50;;;;;;;7.76;nan;92972.53;4931277;29;20043;-64
2022/09/30 01:09:30;;;;;;;4.87;2.40;;;;;;;7.67;nan;92986.00;4931970;29;20051;-64
2022/09/30 01:11:57;;;;;;;4.78;2.80;;;;;;;7.66;nan;92987.19;4931271;29;20843;-64
2022/09/30 01:14:26;;;;;;;5.50;2.90;;;;;;;7.57;nan;92990.47;4931788;29;20047;-65
2022/09/30 01:17:18;;;;;;;5.40;3.00;;;;;;;7.51;nan;92987.47;4931424;29;20050;-64
2022/09/30 01:20:06;;;;;;;5.30;3.20;;;;;;;7.53;nan;92982.34;4931882;29;20065;-64
2022/09/30 01:22:36;;;;;;;5.97;3.30;;;;;;;7.48;nan;92990.25;4926073;29;20047;-64
2022/09/30 01:25:25;;;;;;;4.95;2.90;;;;;;;7.57;nan;92993.97;4919280;29;20069;-64
2022/09/30 01:27:52;;;;;;;4.97;2.83;;;;;;;7.56;nan;92997.88;4934805;29;20050;-64
2022/09/30 01:30:22;;;;;;;5.35;2.90;;;;;;;7.34;nan;92994.00;4918408;29;20056;-64
2022/09/30 01:33:02;;;;;;;5.10;2.63;;;;;;;7.49;nan;93005.44;4935008;29;20409;-64
2022/09/30 01:35:56;;;;;;;5.67;3.30;;;;;;;7.58;nan;93005.66;4938127;29;20035;-64
2022/09/30 01:38:29;;;;;;;6.63;3.40;;;;;;;7.50;nan;92990.59;4934354;29;20388;-64
2022/09/30 01:40:58;;;;;;;5.90;2.95;;;;;;;7.53;nan;92992.50;4934337;29;20452;-64
2022/09/30 01:43:46;;;;;;;4.80;2.67;;;;;;;7.66;nan;92987.19;4934913;29;20039;-65
2022/09/30 01:46:33;;;;;;;5.60;3.08;;;;;;;7.78;nan;92989.28;4934194;29;20220;-64
2022/09/30 01:49:32;;;;;;;5.27;3.20;;;;;;;7.82;nan;92991.94;4933826;29;20670;-64
2022/09/30 01:51:59;;;;;;;7.15;3.05;;;;;;;7.80;nan;92993.13;4926079;29;20066;-64
2022/09/30 01:54:45;;;;;;;4.80;2.85;;;;;;;7.74;nan;92980.38;4929774;29;20069;-65
2022/09/30 01:57:26;;;;;;;4.85;2.60;;;;;;;7.76;nan;92989.69;4928200;29;20840;-64
2022/09/30 02:00:02;;;;;;;5.72;2.83;;;;;;;7.88;nan;92988.31;4915577;29;20052;-64
2022/09/30 02:02:37;;;;;;;6.50;2.90;;;;;;;7.85;nan;92989.16;4923660;29;20044;-64
2022/09/30 02:05:09;;;;;;;5.28;2.90;;;;;;;7.85;nan;92997.34;4922213;29;20570;-64
2022/09/30 02:07:42;;;;;;;5.95;3.05;;;;;;;7.67;nan;93003.16;4917410;29;20039;-65
2022/09/30 02:10:20;;;;;;;5.95;2.75;;;;;;;7.66;nan;92996.13;4934516;29;20049;-65
2022/09/30 02:12:55;;;;;;;7.38;3.33;;;;;;;7.83;nan;93001.66;4934142;29;20039;-64
2022/09/30 02:15:30;;;;;;;6.97;3.40;;;;;;;7.89;nan;92991.81;4934583;29;20396;-64
2022/09/30 02:18:12;;;;;;;5.22;2.95;;;;;;;7.30;nan;92990.56;4933686;29;21625;-65
2022/09/30 02:20:42;;;;;;;6.82;3.47;;;;;;;7.02;nan;92981.69;4934048;29;20051;-64
2022/09/30 02:23:19;;;;;;;5.50;2.90;;;;;;;7.18;nan;92984.53;4934555;29;20050;-64
2022/09/30 02:25:54;;;;;;;8.20;3.80;;;;;;;7.36;nan;92991.63;4933614;29;20066;-64
2022/09/30 02:28:26;;;;;;;6.37;3.40;;;;;;;7.62;nan;93000.13;4934150;29;20078;-64
2022/09/30 02:30:57;;;;;;;7.47;3.70;;;;;;;7.76;nan;92997.13;4933625;29;20055;-64
2022/09/30 02:33:35;;;;;;;5.35;3.20;;;;;;;7.74;nan;92999.50;4934299;29;20051;-65
2022/09/30 02:36:08;;;;;;;6.43;2.50;;;;;;;7.71;nan;93003.09;4944016;28;20866;-64
2022/09/30 02:38:41;;;;;;;5.00;2.70;;;;;;;7.66;nan;93007.06;4934457;29;20040;-64
2022/09/30 02:41:21;;;;;;;4.87;2.17;;;;;;;7.78;nan;93000.97;4933958;29;20051;-64
2022/09/30 02:43:49;;;;;;;4.80;2.47;;;;;;;7.82;nan;93003.63;4933244;29;20044;-65
2022/09/30 02:46:32;;;;;;;6.03;3.13;;;;;;;7.82;nan;93000.91;4916640;29;20066;-64
2022/09/30 02:49:12;;;;;;;9.10;4.28;;;;;;;7.73;nan;93004.22;4933111;29;22237;-63
2022/09/30 02:51:42;;;;;;;8.85;4.40;;;;;;;7.86;nan;93007.06;4933435;29;20047;-65
2022/09/30 02:54:25;;;;;;;7.93;4.07;;;;;;;7.80;nan;93014.22;4933606;29;20416;-64
2022/09/30 02:56:58;;;;;;;7.15;3.50;;;;;;;7.68;nan;93015.59;4933101;29;20489;-62
2022/09/30 02:59:26;;;;;;;9.27;4.57;;;;;;;7.04;nan;93019.47;4933702;29;20056;-62
2022/09/30 03:01:53;;;;;;;9.98;4.30;;;;;;;6.93;nan;93019.66;4933179;29;20066;-63
2022/09/30 03:04:25;;;;;;;10.75;4.90;;;;;;;6.75;nan;93026.13;4933463;29;20050;-63
2022/09/30 03:06:53;;;;;;;8.33;4.20;;;;;;;6.84;nan;93038.47;4932915;29;20386;-64
2022/09/30 03:09:27;;;;;;;8.85;4.18;;;;;;;6.73;nan;93031.22;4932975;29;20050;-64
2022/09/30 03:12:04;;;;;;;10.15;4.63;;;;;;;7.10;nan;93037.69;4916225;29;20752;-64
2022/09/30 03:14:36;;;;;;;7.72;4.22;;;;;;;6.99;nan;93037.84;4933011;29;20055;-65
2022/09/30 03:17:16;;;;;;;8.32;4.53;;;;;;;7.12;nan;93032.59;4933245;29;20063;-64
2022/09/30 03:20:05;;;;;;;7.43;3.90;;;;;;;7.37;nan;93045.03;4932914;29;20500;-63
2022/09/30 03:22:52;;;;;;;5.85;3.40;;;;;;;7.57;nan;93036.91;4932790;29;20051;-65
2022/09/30 03:25:25;;;;;;;33.67;19.13;;;;;;;7.64;nan;93035.97;4933080;29;20040;-63
2022/09/30 03:28:16;;;;;;;9.95;5.88;;;;;;;7.62;nan;93038.38;4932177;29;20052;-64
2022/09/30 03:31:13;;;;;;;8.57;4.55;;;;;;;7.68;nan;93045.66;4932437;29;20054;-64
2022/09/30 03:33:43;;;;;;;9.50;4.53;;;;;;;7.54;nan;93037.72;4930003;29;20087;-65
2022/09/30 03:36:38;;;;;;;11.77;5.40;;;;;;;7.56;nan;93047.03;4933186;29;20048;-64
2022/09/30 03:39:27;;;;;;;9.68;5.10;;;;;;;7.52;nan;93035.41;4931868;29;20691;-64
2022/09/30 03:42:01;;;;;;;12.30;5.78;;;;;;;7.45;nan;93043.72;4931294;29;20451;-64
2022/09/30 03:44:36;;;;;;;12.68;6.07;;;;;;;7.50;nan;93047.94;4932869;29;20048;-63
2022/09/30 03:47:07;;;;;;;10.67;5.43;;;;;;;7.37;nan;93047.78;4932087;29;20940;-63
2022/09/30 03:49:41;;;;;;;11.27;5.18;;;;;;;7.25;nan;93051.88;4930592;29;20394;-65
2022/09/30 03:52:11;;;;;;;9.82;5.10;;;;;;;7.40;nan;93046.91;4930024;29;20042;-64
2022/09/30 03:54:48;;;;;;;10.90;4.90;;;;;;;7.30;nan;93047.88;4931839;29;20056;-64
2022/09/30 03:57:15;;;;;;;9.00;4.22;;;;;;;7.47;nan;93048.78;4932126;29;20203;-64
2022/09/30 03:59:42;;;;;;;7.63;3.90;;;;;;;7.51;nan;93047.53;4932151;29;20048;-64
2022/09/30 04:02:11;;;;;;;7.55;3.85;;;;;;;7.56;nan;93040.78;4932638;29;20392;-66
2022/09/30 04:04:42;;;;;;;11.38;4.13;;;;;;;7.52;nan;93045.56;4915387;29;20054;-64
2022/09/30 04:07:09;;;;;;;6.40;4.05;;;;;;;7.55;nan;93050.19;4916488;29;20039;-64
2022/09/30 04:09:39;;;;;;;6.25;3.70;;;;;;;7.65;nan;93054.69;4932080;29;20070;-65
2022/09/30 04:12:07;;;;;;;6.07;3.37;;;;;;;7.67;nan;93062.47;4932332;29;20047;-64
2022/09/30 04:14:34;;;;;;;5.63;3.08;;;;;;;7.56;nan;93063.41;4931877;29;20048;-65
2022/09/30 04:17:03;;;;;;;6.72;3.47;;;;;;;7.59;nan;93073.50;4932119;29;20082;-65
2022/09/30 04:19:30;;;;;;;6.10;3.05;;;;;;;7.52;nan;93072.84;4932182;29;20039;-64
2022/09/30 04:21:56;;;;;;;5.53;3.35;;;;;;;7.48;nan;93070.19;4932311;29;20046;-64
2022/09/30 04:24:23;;;;;;;6.77;3.50;;;;;;;7.52;nan;93070.13;4932504;29;20043;-64
2022/09/30 04:26:50;;;;;;;6.10;3.40;;;;;;;7.52;nan;93076.34;4914858;29;20507;-64
2022/09/30 04:29:17;;;;;;;7.28;3.78;;;;;;;7.50;nan;93081.44;4932200;29;20044;-63
2022/09/30 04:31:44;;;;;;;6.28;3.33;;;;;;;7.47;nan;93079.56;4931697;29;20062;-64
2022/09/30 04:34:11;;;;;;;6.95;3.33;;;;;;;7.40;nan;93082.41;4932087;29;20397;-64
2022/09/30 04:36:38;;;;;;;6.53;3.53;;;;;;;7.22;nan;93090.88;4942131;28;20040;-64
2022/09/30 04:39:05;;;;;;;8.02;3.67;;;;;;;7.32;nan;93091.91;4932156;29;20055;-64
2022/09/30 04:41:33;;;;;;;6.55;3.90;;;;;;;7.40;nan;93093.31;4931414;29;20044;-63
2022/09/30 04:44:04;;;;;;;7.65;4.60;;;;;;;7.30;nan;93095.03;4931870;29;20052;-64
2022/09/30 04:46:35;;;;;;;7.40;3.80;;;;;;;7.35;nan;93100.03;4931692;29;20372;-64
2022/09/30 04:49:04;;;;;;;7.00;3.77;;;;;;;7.54;nan;93100.50;4932245;29;20102;-64
2022/09/30 04:51:35;;;;;;;7.13;3.70;;;;;;;7.59;nan;93095.34;4931556;29;20059;-63
2022/09/30 04:54:02;;;;;;;8.02;4.22;;;;;;;7.62;nan;93090.25;4932941;29;20062;-63
2022/09/30 04:56:29;;;;;;;7.78;4.45;;;;;;;7.55;nan;93091.91;4931514;29;20511;-64
2022/09/30 04:58:56;;;;;;;9.77;4.78;;;;;;;7.38;nan;93084.78;4933337;29;21432;-63
2022/09/30 05:01:23;;;;;;;13.60;7.03;;;;;;;7.50;nan;93086.16;4925281;29;20525;-64
2022/09/30 05:03:49;;;;;;;11.63;7.40;;;;;;;7.41;nan;93089.44;4917727;29;20052;-63
2022/09/30 05:06:17;;;;;;;12.50;7.90;;;;;;;7.48;nan;93086.56;4934562;29;20054;-62
2022/09/30 05:08:43;;;;;;;12.50;7.75;;;;;;;7.42;nan;93095.66;4933897;29;20043;-63
2022/09/30 05:11:17;;;;;;;13.82;8.38;;;;;;;7.42;nan;93098.38;4934042;29;20043;-63
2022/09/30 05:13:45;;;;;;;12.57;7.17;;;;;;;7.36;nan;93100.81;4917221;29;20146;-62
2022/09/30 05:16:13;;;;;;;10.95;6.88;;;;;;;7.45;nan;93097.56;4934707;29;20055;-63
2022/09/30 05:18:44;;;;;;;16.60;9.65;;;;;;;7.17;nan;93100.31;4933405;29;20058;-63
2022/09/30 05:21:15;;;;;;;13.38;7.00;;;;;;;7.10;nan;93092.25;4918359;29;20058;-63
2022/09/30 05:23:42;;;;;;;10.45;6.10;;;;;;;7.28;nan;93094.69;4933859;29;20047;-64
2022/09/30 05:26:09;;;;;;;9.17;4.80;;;;;;;6.98;nan;93095.53;4933667;29;20039;-64
2022/09/30 05:28:39;;;;;;;8.02;4.93;;;;;;;7.12;nan;93098.06;4932989;29;20055;-64
2022/09/30 05:31:06;;;;;;;9.20;4.82;;;;;;;7.15;nan;93091.78;4934334;29;20043;-64
2022/09/30 05:33:34;;;;;;;8.88;4.88;;;;;;;7.05;nan;93109.09;4933392;29;20074;-63
2022/09/30 05:36:04;;;;;;;6.95;4.10;;;;;;;6.89;nan;93106.97;4936776;29;20067;-63
2022/09/30 05:38:31;;;;;;;6.27;3.90;;;;;;;7.02;nan;93114.59;4933469;29;20056;-64
2022/09/30 05:40:58;;;;;;;10.65;5.25;;;;;;;7.05;nan;93114.53;4933739;29;20056;-63
2022/09/30 05:43:25;;;;;;;11.50;6.40;;;;;;;7.10;nan;93122.28;4934173;29;20047;-63
2022/09/30 05:45:56;;;;;;;14.60;8.27;;;;;;;6.95;nan;93121.69;4933580;29;20043;-64
2022/09/30 05:48:24;;;;;;;9.88;5.80;;;;;;;6.95;nan;93120.94;4916476;29;20039;-64
2022/09/30 05:50:55;;;;;;;7.80;4.50;;;;;;;7.03;nan;93124.31;4933782;29;20050;-64
2022/09/30 05:53:22;;;;;;;7.18;3.90;;;;;;;6.91;nan;93140.06;4934013;29;20396;-64
2022/09/30 05:55:49;;;;;;;5.93;3.53;;;;;;;6.95;nan;93145.47;4932949;29;20052;-63
2022/09/30 05:58:17;;;;;;;6.97;3.30;;;;;;;7.06;nan;93156.22;4933477;29;20523;-63
2022/09/30 06:00:46;;;;;;;6.38;3.80;;;;;;;7.22;nan;93152.88;4931655;29;20066;-63
2022/09/30 06:03:14;;;;;;;6.00;3.83;;;;;;;7.30;nan;93149.63;4933322;29;20043;-63
2022/09/30 06:05:44;;;;;;;5.35;3.35;;;;;;;7.30;nan;93148.84;4932108;29;20054;-63
2022/09/30 06:08:13;;;;;;;5.70;2.70;;;;;;;7.49;nan;93159.09;4933726;29;20043;-63
2022/09/30 06:10:41;;;;;;;7.65;4.68;;;;;;;7.31;nan;93156.63;4932766;29;20106;-63
2022/09/30 06:13:09;;;;;;;11.82;5.30;;;;;;;7.35;nan;93162.81;4933649;29;20043;-63
2022/09/30 06:15:40;;;;;;;7.20;4.57;;;;;;;7.65;nan;93169.38;4916053;29;20048;-64
2022/09/30 06:18:07;;;;;;;9.32;5.60;;;;;;;7.68;nan;93167.78;4932825;29;20042;-64
2022/09/30 06:20:35;;;;;;;8.23;4.30;;;;;;;7.33;nan;93175.34;4932917;29;20055;-65
2022/09/30 06:23:02;;;;;;;6.85;3.92;;;;;;;7.30;nan;93178.88;4933175;29;20489;-64
2022/09/30 06:25:30;;;;;;;6.65;3.88;;;;;;;7.45;nan;93180.22;4932429;29;20409;-63
2022/09/30 06:27:58;;;;;;;5.93;4.13;;;;;;;7.74;nan;93185.22;4932790;29;20047;-63
2022/09/30 06:30:25;;;;;;;7.85;4.70;;;;;;;8.05;nan;93174.16;4933057;29;20553;-64
2022/09/30 06:32:56;;;;;;;12.30;5.30;;;;;;;8.17;nan;93187.25;4932486;29;20055;-63
2022/09/30 06:35:23;;;;;;;10.50;5.57;;;;;;;8.44;nan;93186.38;4934639;29;20046;-63
2022/09/30 06:37:51;;;;;;;7.25;4.13;;;;;;;8.44;nan;93195.34;4932805;29;20039;-64
2022/09/30 06:40:21;;;;;;;10.50;6.27;;;;;;;8.39;nan;93182.13;4932528;29;20382;-63
2022/09/30 06:42:48;;;;;;;9.07;5.10;;;;;;;8.43;nan;93187.56;4932902;29;20493;-63
2022/09/30 06:45:17;;;;;;;8.75;4.50;;;;;;;8.36;nan;93191.19;4933083;29;20043;-63
2022/09/30 06:48:00;;;;;;;6.32;3.88;;;;;;;8.12;nan;93188.47;4931377;29;20186;-63
2022/09/30 06:50:31;;;;;;;8.82;4.53;;;;;;;8.26;nan;93198.38;4932409;29;20032;-63
2022/09/30 06:53:05;;;;;;;7.57;4.07;;;;;;;8.26;nan;93205.81;4932013;29;20849;-64
2022/09/30 06:55:35;;;;;;;7.47;4.18;;;;;;;8.46;nan;93206.66;4931999;29;20050;-63
2022/09/30 06:58:02;;;;;;;8.40;5.22;;;;;;;8.49;nan;93207.75;4932381;29;20698;-63
2022/09/30 07:00:28;;;;;;;13.05;5.60;;;;;;;8.50;nan;93214.78;4930541;29;20059;-63
2022/09/30 07:02:55;;;;;;;9.52;5.18;;;;;;;8.49;nan;93214.03;4930899;29;20406;-64
2022/09/30 07:05:24;;;;;;;9.73;5.10;;;;;;;8.79;nan;93215.00;4932562;29;20521;-63
2022/09/30 07:07:52;;;;;;;9.13;4.97;;;;;;;8.80;nan;93217.31;4915267;29;20082;-62
2022/09/30 07:10:20;;;;;;;8.73;4.95;;;;;;;8.75;nan;93219.78;4931896;29;20039;-63
2022/09/30 07:12:51;;;;;;;8.98;5.00;;;;;;;8.86;nan;93225.03;4931830;29;20528;-63
2022/09/30 07:15:22;;;;;;;7.40;4.50;;;;;;;9.33;nan;93222.88;4932658;29;20051;-63
2022/09/30 07:17:52;;;;;;;7.87;4.80;;;;;;;9.37;nan;93220.81;4931003;29;20055;-65
2022/09/30 07:20:19;;;;;;;8.82;4.95;;;;;;;8.78;nan;93219.69;4932410;29;20051;-63
2022/09/30 07:22:46;;;;;;;8.30;5.00;;;;;;;9.43;nan;93218.34;4931842;29;20051;-63
2022/09/30 07:25:14;;;;;;;9.18;4.88;;;;;;;9.52;nan;93207.59;4931424;29;20050;-63
2022/09/30 07:27:41;;;;;;;11.35;5.40;;;;;;;9.12;nan;93226.84;4914523;29;20071;-62
2022/09/30 07:30:08;;;;;;;9.53;5.57;;;;;;;8.96;nan;93226.78;4915273;29;20061;-62
2022/09/30 07:32:42;;;;;;;10.70;5.60;;;;;;;8.62;nan;93238.00;4931192;29;20081;-64
2022/09/30 07:35:08;;;;;;;9.30;5.63;;;;;;;8.59;nan;93240.41;4932341;29;20066;-63
2022/09/30 07:37:35;;;;;;;9.13;4.88;;;;;;;9.27;nan;93234.75;4931564;29;20505;-63
2022/09/30 07:40:05;;;;;;;7.88;4.60;;;;;;;9.08;nan;93239.84;4931134;29;20078;-62
2022/09/30 07:42:32;;;;;;;9.67;5.20;;;;;;;9.63;nan;93239.47;4931825;29;20456;-62
2022/09/30 07:45:00;;;;;;;10.50;4.70;;;;;;;9.22;nan;93240.75;4932096;29;20062;-62
2022/09/30 07:47:27;;;;;;;10.02;4.78;;;;;;;9.10;nan;93237.44;4931318;29;20143;-62
2022/09/30 07:49:54;;;;;;;10.55;4.93;;;;;;;10.03;nan;93229.13;4931356;29;20040;-62
2022/09/30 07:52:21;;;;;;;8.82;4.80;;;;;;;10.33;nan;93228.00;4931844;29;20039;-63
2022/09/30 07:54:48;;;;;;;9.13;5.50;;;;;;;10.27;nan;93243.41;4930630;29;20040;-63
2022/09/30 07:57:16;;;;;;;8.90;4.50;;;;;;;10.65;nan;93242.88;4931206;29;20653;-63
2022/09/30 07:59:43;;;;;;;9.63;5.45;;;;;;;10.64;nan;93235.06;4931221;29;20039;-62
2022/09/30 08:02:14;;;;;;;9.48;5.65;;;;;;;9.48;nan;93248.00;4929807;29;20040;-61
2022/09/30 08:04:42;;;;;;;10.23;5.95;;;;;;;9.00;nan;93243.91;4930484;29;20044;-64
2022/09/30 08:07:11;;;;;;;11.77;6.10;;;;;;;9.42;nan;93244.22;4931414;29;20368;-64
2022/09/30 08:09:37;;;;;;;11.55;5.68;;;;;;;9.29;nan;93249.56;4930671;29;20058;-63
2022/09/30 08:12:04;;;;;;;9.75;5.60;;;;;;;9.82;nan;93249.59;4931250;29;20111;-63
2022/09/30 08:14:32;;;;;;;10.10;5.85;;;;;;;9.88;nan;93247.09;4930426;29;20062;-62
2022/09/30 08:16:59;;;;;;;9.20;5.50;;;;;;;10.01;nan;93253.44;4898879;29;20048;-63
2022/09/30 08:19:28;;;;;;;10.53;5.83;;;;;;;9.28;nan;93261.72;4931224;29;20681;-63
2022/09/30 08:21:55;;;;;;;10.70;5.30;;;;;;;9.91;nan;93265.44;4930638;29;20643;-62
2022/09/30 08:24:24;;;;;;;11.43;6.22;;;;;;;9.28;nan;93269.94;4930948;29;20050;-63
2022/09/30 08:26:52;;;;;;;9.95;6.25;;;;;;;9.63;nan;93270.34;4929890;29;20060;-63
2022/09/30 08:29:19;;;;;;;11.85;6.38;;;;;;;10.39;nan;93264.69;4916185;29;20040;-63
2022/09/30 08:32:01;;;;;;;10.73;6.10;;;;;;;10.96;nan;93261.66;4933894;29;20670;-63
2022/09/30 08:34:32;;;;;;;11.45;6.35;;;;;;;12.03;nan;93260.50;4935670;29;20350;-63
2022/09/30 08:37:00;;;;;;;12.20;6.82;;;;;;;11.10;nan;93269.50;4945945;28;20744;-64
2022/09/30 08:39:30;;;;;;;12.10;7.13;;;;;;;11.48;nan;93263.31;4934335;29;20058;-64
2022/09/30 08:42:01;;;;;;;11.90;7.40;;;;;;;12.87;nan;93273.88;4935150;29;20040;-64
2022/09/30 08:44:45;;;;;;;14.13;7.40;;;;;;;12.71;nan;93285.06;4934629;29;20055;-63
2022/09/30 08:47:28;;;;;;;12.27;7.43;;;;;;;11.91;nan;93295.06;4934465;29;20048;-63
2022/09/30 08:50:05;;;;;;;12.48;6.95;;;;;;;12.16;nan;93301.78;4934311;29;20714;-62
2022/09/30 08:52:37;;;;;;;12.02;7.43;;;;;;;13.19;nan;93303.06;4934145;29;20051;-63
2022/09/30 08:55:23;;;;;;;11.93;7.25;;;;;;;13.50;nan;93301.63;4934491;29;20047;-63
2022/09/30 08:57:52;;;;;;;11.80;7.57;;;;;;;12.54;nan;93303.72;4934106;29;20055;-63
2022/09/30 09:00:20;;;;;;;11.70;7.30;;;;;;;13.47;nan;93303.31;4933868;29;20040;-64
2022/09/30 09:02:53;;;;;;;12.02;7.55;;;;;;;12.29;nan;93308.03;4933580;29;20415;-63
2022/09/30 09:05:48;;;;;;;12.57;7.82;;;;;;;12.19;nan;93306.38;4934756;29;20094;-64
2022/09/30 09:08:48;;;;;;;12.88;8.38;;;;;;;11.35;nan;93318.25;4933181;29;20568;-63
2022/09/30 09:11:19;;;;;;;12.13;7.37;;;;;;;12.56;nan;93315.06;4923967;29;20212;-63
2022/09/30 09:13:59;;;;;;;12.23;7.68;;;;;;;10.88;nan;93324.19;4934555;29;20048;-64
2022/09/30 09:16:37;;;;;;;13.48;8.10;;;;;;;10.42;nan;93326.13;4934316;29;20054;-63
2022/09/30 09:19:16;;;;;;;14.30;7.90;;;;;;;11.09;nan;93330.34;4933658;29;20657;-63
2022/09/30 09:21:52;;;;;;;12.85;7.30;;;;;;;12.03;nan;93334.00;4933560;29;20040;-63
2022/09/30 09:24:29;;;;;;;12.47;7.73;;;;;;;12.55;nan;93330.78;4933947;29;20040;-64
2022/09/30 09:26:57;;;;;;;11.02;6.05;;;;;;;16.43;nan;93328.66;4915304;29;20847;-64
2022/09/30 09:29:55;;;;;;;8.63;5.50;;;;;;;18.63;nan;93325.34;4934437;29;20054;-63
2022/09/30 09:32:25;;;;;;;7.35;4.82;;;;;;;18.21;nan;93332.03;4933891;29;20855;-63
2022/09/30 09:34:59;;;;;;;6.88;4.55;;;;;;;15.82;nan;93326.66;4918308;29;20039;-63
2022/09/30 09:40:56;;;;;;;7.70;4.63;;;;;;;15.92;nan;93327.41;4931077;29;22540;-63
2022/09/30 09:43:34;;;;;;;7.07;4.40;;;;;;;15.64;nan;93334.97;4918063;29;20158;-62
2022/09/30 09:46:20;;;;;;;6.75;4.72;;;;;;;16.39;nan;93331.56;4920550;29;20062;-63
2022/09/30 09:48:48;;;;;;;9.13;5.53;;;;;;;16.94;nan;93331.34;4933735;29;20052;-63
2022/09/30 09:51:32;;;;;;;8.70;5.50;;;;;;;18.37;nan;93333.50;4934664;29;20323;-63
2022/09/30 09:54:00;;;;;;;6.30;4.13;;;;;;;19.16;nan;93337.50;4933677;29;20690;-64
2022/09/30 09:56:29;;;;;;;6.22;3.90;;;;;;;18.42;nan;93332.84;4934685;29;20335;-63
2022/09/30 09:59:18;;;;;;;7.53;4.80;;;;;;;18.17;nan;93329.44;4933825;29;20667;-64
2022/09/30 10:01:48;;;;;;;5.70;3.40;;;;;;;18.01;nan;93338.25;4931852;29;20055;-63
2022/09/30 10:04:18;;;;;;;6.57;3.97;;;;;;;17.79;nan;93338.56;4934430;29;20050;-63
2022/09/30 10:07:12;;;;;;;5.75;3.83;;;;;;;17.66;nan;93338.06;4933733;29;20122;-63
2022/09/30 10:09:40;;;;;;;5.78;4.03;;;;;;;18.12;nan;93332.88;4934062;29;20511;-64
2022/09/30 10:12:07;;;;;;;6.68;4.20;;;;;;;18.72;nan;93330.03;4934452;29;20047;-64
2022/09/30 10:14:45;;;;;;;5.10;3.58;;;;;;;16.52;nan;93328.59;4933911;29;20050;-63
2022/09/30 10:17:28;;;;;;;5.20;3.90;;;;;;;15.44;nan;93333.44;4934140;29;20066;-63
2022/09/30 10:20:23;;;;;;;7.05;4.60;;;;;;;14.92;nan;93329.72;4932912;29;20484;-63
2022/09/30 10:23:00;;;;;;;6.22;4.10;;;;;;;18.90;nan;93329.81;4931496;29;20166;-64
2022/09/30 10:25:27;;;;;;;6.95;4.63;;;;;;;15.14;nan;93340.63;4917357;29;20043;-63
2022/09/30 10:27:58;;;;;;;7.30;4.93;;;;;;;14.22;nan;93348.63;4933437;29;20504;-62
2022/09/30 10:30:38;;;;;;;7.77;4.90;;;;;;;13.89;nan;93341.56;4933631;29;20063;-63
2022/09/30 10:33:17;;;;;;;5.47;3.47;;;;;;;14.71;nan;93339.66;4933047;29;20676;-62
2022/09/30 10:35:52;;;;;;;8.02;3.97;;;;;;;15.05;nan;93338.63;4933761;29;20390;-62
2022/09/30 10:38:19;;;;;;;5.95;3.03;;;;;;;16.23;nan;93332.69;4933656;29;20044;-63
2022/09/30 10:40:50;;;;;;;4.13;2.70;;;;;;;16.15;nan;93340.56;4933464;29;20054;-62
2022/09/30 10:43:22;;;;;;;5.37;3.20;;;;;;;15.63;nan;93345.25;4917045;29;20048;-63
2022/09/30 10:45:50;;;;;;;5.18;2.78;;;;;;;14.68;nan;93346.84;4933219;29;20048;-63
2022/09/30 10:48:38;;;;;;;4.75;2.65;;;;;;;15.58;nan;93346.63;4933112;29;20208;-62
2022/09/30 10:51:35;;;;;;;4.97;2.78;;;;;;;13.50;nan;93357.56;4932982;29;20428;-62
2022/09/30 10:54:04;;;;;;;4.60;2.63;;;;;;;13.69;nan;93371.47;4932433;29;21532;-62
2022/09/30 10:56:39;;;;;;;5.77;2.70;;;;;;;14.48;nan;93376.81;4932925;29;20044;-63
2022/09/30 10:59:15;;;;;;;3.60;1.98;;;;;;;15.37;nan;93364.94;4933267;29;20040;-63
2022/09/30 11:02:10;;;;;;;4.07;2.50;;;;;;;15.03;nan;93370.69;4932852;29;20039;-62
2022/09/30 11:04:41;;;;;;;4.70;2.75;;;;;;;14.94;nan;93369.47;4932731;29;20047;-63
2022/09/30 11:07:26;;;;;;;4.93;2.83;;;;;;;14.72;nan;93374.31;4933519;29;20048;-62
2022/09/30 11:10:22;;;;;;;5.20;2.40;;;;;;;13.14;nan;93374.53;4915920;29;20413;-62
2022/09/30 11:13:09;;;;;;;3.75;2.22;;;;;;;14.85;nan;93376.94;4915292;29;20400;-62
2022/09/30 11:15:49;;;;;;;5.28;2.60;;;;;;;15.33;nan;93372.59;4932670;29;20047;-63
2022/09/30 11:18:25;;;;;;;4.00;2.40;;;;;;;15.68;nan;93372.28;4919955;29;20047;-62
2022/09/30 11:20:58;;;;;;;4.50;2.40;;;;;;;16.91;nan;93370.31;4932625;29;20054;-63
2022/09/30 11:23:39;;;;;;;5.10;2.63;;;;;;;16.08;nan;93363.06;4932999;29;20044;-63
2022/09/30 11:26:39;;;;;;;3.85;2.33;;;;;;;16.72;nan;93373.16;4931905;29;20072;-63
2022/09/30 11:29:11;;;;;;;5.25;2.22;;;;;;;15.58;nan;93368.00;4932144;29;20641;-62
2022/09/30 11:31:59;;;;;;;3.90;2.30;;;;;;;15.96;nan;93359.22;4932298;29;20050;-64
2022/09/30 11:35:08;;;;;;;3.33;2.00;;;;;;;17.34;nan;93376.53;4932883;29;20051;-64
2022/09/30 11:38:09;;;;;;;4.00;1.70;;;;;;;18.27;nan;93366.22;4922365;29;20964;-63
2022/09/30 11:40:53;;;;;;;3.55;1.67;;;;;;;17.08;nan;93377.00;4932110;29;20068;-64
2022/09/30 11:43:38;;;;;;;3.58;1.80;;;;;;;16.35;nan;93373.28;4932527;29;20047;-64
2022/09/30 11:46:27;;;;;;;3.03;1.75;;;;;;;16.79;nan;93369.25;4931834;29;20366;-63
2022/09/30 11:49:29;;;;;;;3.75;1.58;;;;;;;16.78;nan;93368.50;4931844;29;20043;-64
2022/09/30 11:52:15;;;;;;;3.93;1.60;;;;;;;16.70;nan;93369.28;4931665;29;20036;-63
2022/09/30 11:55:11;;;;;;;3.38;1.80;;;;;;;15.85;nan;93369.22;4932039;29;20050;-63
2022/09/30 11:57:59;;;;;;;4.32;2.50;;;;;;;14.82;nan;93378.63;4930110;29;20047;-63
2022/09/30 12:00:39;;;;;;;6.10;2.80;;;;;;;14.49;nan;93367.31;4932074;29;20043;-63
2022/09/30 12:03:21;;;;;;;5.93;2.97;;;;;;;15.63;nan;93361.84;4931795;29;20489;-63
2022/09/30 12:05:53;;;;;;;5.00;3.20;;;;;;;16.26;nan;93361.44;4931946;29;20051;-63
2022/09/30 12:08:31;;;;;;;4.63;2.60;;;;;;;16.13;nan;93358.88;4915505;29;20044;-63
2022/09/30 12:11:07;;;;;;;4.80;3.10;;;;;;;14.35;nan;93369.41;4931284;29;20691;-63
2022/09/30 12:13:39;;;;;;;6.53;3.30;;;;;;;14.23;nan;93366.75;4932141;29;20043;-65
2022/09/30 12:16:15;;;;;;;4.85;2.95;;;;;;;13.85;nan;93374.03;4932419;29;20069;-63
2022/09/30 12:18:47;;;;;;;4.63;2.60;;;;;;;14.72;nan;93372.31;4931727;29;20055;-63
2022/09/30 12:21:57;;;;;;;4.47;2.40;;;;;;;15.58;nan;93363.22;4932279;29;20136;-63
2022/09/30 12:24:40;;;;;;;3.70;2.05;;;;;;;16.24;nan;93364.72;4931336;29;20653;-63
2022/09/30 12:27:29;;;;;;;3.80;2.00;;;;;;;16.74;nan;93367.91;4930968;29;20923;-63
2022/09/30 12:30:19;;;;;;;3.40;2.17;;;;;;;16.79;nan;93374.81;4931324;29;20781;-63